Terminal Aerodrome Forecast
Issued by NWS Cleveland, OH

Home | Current Version | Previous Version | Text Only | Print | Product List | Glossary Off
Versions: 1 2 3 4 5 6 7 8 9 10 11 12 13 14 15 16 17 18 19 20 21

000
FTUS41 KCLE 251100
TAFCAK
TAF
KCAK 251140Z 2512/2612 26006KT 2SM BR OVC008
     FM251500 07008KT 4SM BR OVC010
     FM251900 05012KT 1SM -SN OVC006
      TEMPO 2521/2601 1/2SM SN OVC003
     FM260900 05015KT 2SM -SN OVC008=

USA.gov is the U.S. government's official web portal to all federal, state and local government web resources and services.